Sycamore (728, 920) Station Data

Red Flag Warning: No
Fire Weather Zone: 250
SDGE Region: Beach Cities
Lat/Lon: 32.914/-117.03

Observations

Time Wind Speed/Gust Temp(F) RH Fuel Moist Fuel Temp(F) Dewpt(F) Tmax(F) Tmin(F) Accum Precip 10-min Precip SL Press(mb)
4/29 11:50pm 125 6 G 7 65° 17% - - 19° 80.1° 58° - - -
4/29 11:40pm 133 6 G 7 65° 18% - - 20° 80.1° 58° - - -
4/29 11:30pm 125 6 G 7 65° 17% - - 19° 80.1° 58° - - -
4/29 11:20pm 136 6 G 7 65° 18% - - 21° 80.1° 58° - - -
4/29 11:10pm 135 6 G 7 65° 18% - - 21° 80.1° 58° - - -
4/29 11:00pm 129 6 G 9 65° 18% - - 21° 80.1° 58° - - -
4/29 10:50pm 120 7 G 10 66° 17% - - 20° 80.1° 58° - - -
4/29 10:40pm 112 7 G 10 66° 16% - - 18° 80.1° 58° - - -
4/29 10:30pm 120 7 G 9 66° 17% - - 20° 80.1° 58° - - -
4/29 10:20pm 114 6 G 7 67° 17% - - 20° 80.1° 58° - - -
4/29 10:10pm 97 6 G 7 66° 18% - - 22° 80.1° 58° - - -
4/29 10:00pm 94 6 G 7 66° 20% - - 24° 80.1° 58° - - -
4/29 9:50pm 65 2 G 7 64° 22% - - 25° 80.1° 58° - - -
4/29 9:40pm 33 2 G 4 64° 23% - - 25° 80.1° 58° - - -
4/29 9:30pm 320 5 G 7 64° 23% - - 25° 80.1° 58° - - -
4/29 9:20pm 305 6 G 7 64° 23% - - 25° 80.1° 58° - - -
4/29 9:10pm 313 6 G 8 64° 22% - - 25° 80.1° 58° - - -
4/29 9:00pm 320 8 G 11 64° 22% - - 25° 80.1° 58° - - -
4/29 8:50pm 318 9 G 12 65° 22% - - 25° 80.1° 58° - - -
4/29 8:40pm 318 9 G 12 65° 21% - - 24° 80.1° 58° - - -
4/29 8:30pm 321 9 G 12 65° 22% - - 25° 80.1° 58° - - -
4/29 8:20pm 321 8 G 11 65° 24% - - 28° 80.1° 58° - - -
4/29 8:10pm 316 7 G 11 65° 26% - - 29° 80.1° 58° - - -
4/29 8:00pm 310 9 G 13 65° 24% - - 28° 80.1° 58° - - -
4/29 7:50pm 327 9 G 13 67° 23% - - 27° 80.1° 58° - - -
4/29 7:40pm 326 9 G 15 67° 24% - - 30° 80.1° 58° - - -
4/29 7:30pm 316 9 G 13 68° 21% - - 27° 80.1° 58° - - -
4/29 7:20pm 318 8 G 12 69° 21% - - 28° 80.1° 58° - - -
4/29 7:10pm 305 8 G 14 70° 20% - - 27° 80.1° 58° - - -
4/29 7:00pm 305 8 G 12 71° 19% - - 27° 80.1° 58° - - -
4/29 6:50pm 307 10 G 15 71° 18% - - 26° 80.1° 58° - - -
4/29 6:40pm 306 11 G 16 71° 17% - - 25° 80.1° 58° - - -
4/29 6:30pm 300 10 G 16 72° 17% - - 25° 80.1° 58° - - -
4/29 6:20pm 302 10 G 15 72° 17% - - 25° 80.1° 58° - - -
4/29 6:10pm 297 9 G 16 72° 16% - - 23° 80.1° 58° - - -
4/29 6:00pm 298 10 G 18 73° 13% - - 19° 80.1° 58° - - -
4/29 5:50pm 306 13 G 20 73° 12% - - 17° 80.1° 58° - - -
4/29 5:40pm 298 11 G 20 72° 14% - - 20° 80.1° 58° - - -
4/29 5:30pm 298 10 G 18 73° 13% - - 19° 80.1° 58° - - -
4/29 5:20pm 287 12 G 18 73° 12% - - 18° 80.1° 58° - - -
4/29 5:10pm 307 14 G 21 74° 12% - - 18° 80.1° 58° - - -
4/29 5:00pm 301 12 G 19 74° 12% - - 17° 80.1° 58° - - -
4/29 4:50pm 300 12 G 19 74° 11% - - 16° 80.1° 58° - - -
4/29 4:40pm 306 14 G 21 75° 10% - - 15° 80.1° 58° - - -
4/29 4:30pm 301 11 G 19 76° 10% - - 16° 80.1° 58° - - -
4/29 4:20pm 296 11 G 20 75° 11% - - 16° 80.1° 58° - - -
4/29 4:10pm 301 11 G 19 75° 11% - - 17° 80.1° 58° - - -
4/29 4:00pm 300 12 G 17 77° 11% - - 18° 80.1° 58° - - -
4/29 3:50pm 300 11 G 18 77° 11% - - 17° 80.1° 58° - - -
4/29 3:40pm 303 9 G 15 78° 10% - - 18° 80.1° 58° - - -
4/29 3:30pm 295 10 G 17 76° 11% - - 18° 80.1° 58° - - -
4/29 3:20pm 303 12 G 18 76° 11% - - 17° 80.1° 58° - - -
4/29 3:10pm 305 13 G 20 77° 10% - - 16° 80.1° 58° - - -
4/29 3:00pm 300 9 G 19 76° 11% - - 17° 80.1° 58° - - -
4/29 2:50pm 295 10 G 18 76° 10% - - 16° 80.1° 58° - - -
4/29 2:40pm 307 13 G 20 76° 10% - - 17° 80.1° 58° - - -
4/29 2:30pm 304 12 G 20 77° 11% - - 19° 80.1° 58° - - -
4/29 2:20pm 299 11 G 18 77° 11% - - 19° 80.1° 58° - - -
4/29 2:10pm 299 10 G 18 78° 11% - - 19° 80.1° 58° - - -
4/29 2:00pm 282 10 G 17 77° 10% - - 16° 80.1° 58° - - -
4/29 1:50pm 290 6 G 15 79° 9% - - 17° 80.1° 58° - - -
4/29 1:40pm 279 9 G 18 78° 10% - - 16° 80.1° 58° - - -
4/29 1:30pm 270 10 G 16 78° 10% - - 16° 80.1° 58° - - -
4/29 1:20pm 255 8 G 14 78° 9% - - 16° 80.1° 58° - - -
4/29 1:10pm 260 5 G 12 78° 10% - - 17° 80.1° 58° - - -
4/29 1:00pm 271 9 G 18 77° 10% - - 17° 80.1° 58° - - -
4/29 12:50pm 254 8 G 14 77° 10% - - 17° 80.1° 58° - - -
4/29 12:40pm 278 7 G 14 77° 10% - - 18° 80.1° 58° - - -
4/29 12:30pm 288 6 G 14 78° 10% - - 18° 80.1° 58° - - -
4/29 12:20pm 286 7 G 16 77° 10% - - 17° 80.1° 58° - - -
4/29 12:10pm 228 8 G 13 77° 10% - - 17° 80.1° 58° - - -
4/29 12:00pm 276 6 G 15 78° 9% - - 14° 80.1° 58° - - -
4/29 11:50am 357 3 G 11 79° 7% - - 80.1° 58° - - -
4/29 11:40am 287 4 G 10 78° 6% - - 79.9° 58° - - -
4/29 11:30am 328 5 G 12 78° 6% - - 79.9° 58° - - -
4/29 11:20am 53 3 G 10 78° 7% - - 79.9° 58° - - -
4/29 11:10am 109 3 G 6 78° 8% - - 11° 79.8° 58° - - -
4/29 11:00am 100 3 G 10 77° 8% - - 12° 79.5° 58° - - -
4/29 10:50am 175 5 G 12 76° 8% - - 10° 77.2° 58° - - -
4/29 10:40am 28 5 G 12 76° 7% - - 77.2° 58° - - -
4/29 10:30am 7 8 G 15 76° 7% - - 77.2° 58° - - -
4/29 10:20am 1 5 G 10 76° 7% - - 77° 58° - - -
4/29 10:10am 18 10 G 15 75° 8% - - 76.2° 58° - - -
4/29 10:00am 3 10 G 16 75° 8% - - 75.4° 58° - - -
4/29 9:50am 12 4 G 11 74° 8% - - 10° 74.9° 58° - - -
4/29 9:40am 147 4 G 9 73° 9% - - 11° 74.3° 58° - - -
4/29 9:30am 38 6 G 11 74° 9% - - 10° 74.3° 58° - - -
4/29 9:20am 54 4 G 13 74° 9% - - 11° 74.3° 58° - - -
4/29 9:10am 77 4 G 11 73° 9% - - 11° 74° 58° - - -
4/29 9:00am 65 3 G 10 72° 9% - - 11° 73.1° 58° - - -
4/29 8:50am 37 2 G 5 72° 9% - - 11° 73.1° 58° - - -
4/29 8:40am 80 1 G 3 72° 9% - - 10° 73.1° 58° - - -
4/29 8:30am 18 2 G 5 71° 10% - - 11° 72° 58° - - -
4/29 8:20am 27 3 G 8 71° 10% - - 11° 72° 58° - - -
4/29 8:10am 29 3 G 7 70° 10% - - 11° 71° 58° - - -
4/29 8:00am 57 4 G 8 69° 11% - - 12° 69.8° 58° - - -
4/29 7:50am 56 5 G 10 69° 11% - - 13° 69.4° 58° - - -
4/29 7:40am 95 3 G 5 68° 12% - - 12° 68.9° 58° - - -
4/29 7:30am 121 4 G 8 67° 12% - - 12° 68.2° 58° - - -
4/29 7:20am 85 3 G 6 67° 11% - - 11° 68.2° 58° - - -
4/29 7:10am 93 4 G 8 66° 11% - - 10° 68.2° 58° - - -
4/29 7:00am 63 7 G 13 66° 11% - - 10° 68.2° 58° - - -
4/29 6:50am 87 5 G 8 66° 11% - - 68.2° 58° - - -
4/29 6:40am 123 2 G 4 66° 10% - - 68.2° 58° - - -
4/29 6:30am 88 4 G 5 66° 10% - - 68.2° 58° - - -
4/29 6:20am 57 4 G 13 65° 11% - - 68.2° 58° - - -
4/29 6:10am 48 9 G 17 66° 10% - - 68.2° 58° - - -
4/29 6:00am 52 7 G 15 66° 11% - - 68.2° 58° - - -
4/29 5:50am 36 6 G 14 65° 11% - - 68.2° 58° - - -
4/29 5:40am 48 6 G 13 66° 11% - - 68.2° 58° - - -
4/29 5:30am 44 7 G 15 66° 11% - - 10° 68.2° 58° - - -
4/29 5:20am 45 6 G 15 66° 11% - - 10° 68.2° 58° - - -
4/29 5:10am 54 7 G 15 66° 11% - - 10° 68.2° 58° - - -
4/29 5:00am 52 7 G 18 66° 11% - - 10° 68.2° 58° - - -
4/29 4:50am 40 5 G 15 66° 11% - - 11° 68.2° 58° - - -
4/29 4:40am 325 2 G 6 66° 12% - - 11° 68.2° 58° - - -
4/29 4:30am 47 4 G 9 66° 12% - - 11° 68.2° 58° - - -
4/29 4:20am 45 4 G 9 66° 12% - - 11° 68.2° 58° - - -
4/29 4:10am 44 5 G 12 66° 12% - - 11° 68.2° 58° - - -
4/29 4:00am 38 7 G 15 66° 12% - - 12° 68.2° 58° - - -
4/29 3:50am 36 6 G 14 67° 12% - - 12° 68.2° 58° - - -
4/29 3:40am 46 6 G 10 67° 12% - - 12° 68.2° 58° - - -
4/29 3:30am 46 5 G 13 67° 12% - - 12° 68.2° 58° - - -
4/29 3:20am 20 3 G 13 66° 13% - - 14° 68.2° 58° - - -
4/29 3:10am 24 3 G 10 65° 16% - - 18° 68.2° 58° - - -
4/29 3:00am 357 5 G 7 65° 19% - - 22° 68.2° 58° - - -
4/29 2:50am 17 8 G 13 66° 15% - - 17° 68.2° 58° - - -
4/29 2:40am 27 8 G 18 67° 14% - - 16° 68.2° 58° - - -
4/29 2:30am 28 10 G 20 67° 14% - - 17° 68.1° 58° - - -
4/29 2:20am 43 9 G 13 66° 17% - - 19° 66.7° 58° - - -
4/29 2:10am 31 9 G 13 62° 36% - - 34° 64.2° 58° - - -
4/29 2:00am 357 5 G 11 60° 49% - - 40° 64.2° 58° - - -
4/29 1:50am 317 5 G 8 59° 54% - - 42° 64.2° 58° - - -
4/29 1:40am 326 4 G 7 59° 48% - - 40° 64.2° 58.6° - - -
4/29 1:30am 105 6 G 11 63° 37% - - 36° 64.2° 60.2° - - -
4/29 1:20am 104 9 G 11 64° 35% - - 36° 64.2° 60.2° - - -
4/29 1:10am 117 7 G 9 63° 39% - - 38° 64.2° 60.2° - - -
4/29 1:00am 129 7 G 9 61° 45% - - 40° 61.7° 60.2° - - -
4/29 12:50am 140 7 G 9 61° 46% - - 40° 61.7° 60.2° - - -
4/29 12:40am 142 7 G 10 61° 46% - - 40° 61.7° 60.2° - - -
4/29 12:30am 146 5 G 7 61° 47% - - 40° 61.7° 60.2° - - -
4/29 12:20am 176 2 G 3 61° 47% - - 41° 61.7° 60.3° - - -
4/29 12:10am 141 3 G 5 61° 46% - - 40° 61.7° 60.8° - - -
4/29 12:00am 132 3 G 5 62° 45% - - 40° 75.4° 53.2° - - -
4/28 11:50pm 136 3 G 5 62° 44% - - 40° 75.4° 53.2° - - -
4/28 11:40pm 149 2 G 3 62° 46% - - 41° 75.4° 53.2° - - -
4/28 11:30pm 152 3 G 4 62° 45% - - 41° 75.4° 53.2° - - -
4/28 11:20pm 151 3 G 5 62° 48% - - 42° 75.4° 53.2° - - -
4/28 11:10pm 160 2 G 3 61° 51% - - 43° 75.4° 53.2° - - -
4/28 11:00pm 122 1 G 2 61° 54% - - 44° 75.4° 53.2° - - -
4/28 10:50pm 115 2 G 5 61° 54% - - 45° 75.4° 53.2° - - -
4/28 10:40pm 103 2 G 5 62° 52% - - 44° 75.4° 53.2° - - -
4/28 10:30pm 195 1 G 3 62° 53% - - 45° 75.4° 53.2° - - -
4/28 10:20pm 192 1 G 2 62° 55% - - 45° 75.4° 53.2° - - -
4/28 10:10pm 330 1 G 2 62° 55% - - 46° 75.4° 53.2° - - -
4/28 10:00pm 302 2 G 3 62° 56% - - 46° 75.4° 53.2° - - -
4/28 9:50pm 283 2 G 3 61° 56% - - 46° 75.4° 53.2° - - -
4/28 9:40pm 265 3 G 5 61° 56% - - 45° 75.4° 53.2° - - -
4/28 9:30pm 248 1 G 2 62° 55% - - 45° 75.4° 53.2° - - -
4/28 9:20pm 321 4 G 6 62° 54% - - 45° 75.4° 53.2° - - -
4/28 9:10pm 338 5 G 7 62° 53% - - 45° 75.4° 53.2° - - -
4/28 9:00pm 338 6 G 10 62° 51% - - 44° 75.4° 53.2° - - -
4/28 8:50pm 321 7 G 10 62° 49% - - 43° 75.4° 53.2° - - -
4/28 8:40pm 317 6 G 9 62° 48% - - 42° 75.4° 53.2° - - -
4/28 8:30pm 331 5 G 9 63° 47% - - 42° 75.4° 53.2° - - -
4/28 8:20pm 319 5 G 9 62° 47% - - 42° 75.4° 53.2° - - -
4/28 8:10pm 311 7 G 11 62° 47% - - 42° 75.4° 53.2° - - -
4/28 8:00pm 312 8 G 11 62° 47% - - 42° 75.4° 53.2° - - -
4/28 7:50pm 313 8 G 12 63° 45% - - 41° 75.4° 53.2° - - -
4/28 7:40pm 315 8 G 11 63° 44% - - 41° 75.4° 53.2° - - -
4/28 7:30pm 329 10 G 14 64° 42% - - 41° 75.4° 53.2° - - -
4/28 7:20pm 330 11 G 16 64° 41% - - 40° 75.4° 53.2° - - -
4/28 7:10pm 332 10 G 15 65° 40% - - 40° 75.4° 53.2° - - -
4/28 7:00pm 332 10 G 15 65° 38% - - 39° 75.4° 53.2° - - -
4/28 6:50pm 335 11 G 16 66° 37% - - 39° 75.4° 53.2° - - -
4/28 6:40pm 330 9 G 16 67° 37% - - 39° 75.4° 53.2° - - -
4/28 6:30pm 321 12 G 18 66° 36% - - 39° 75.4° 53.2° - - -
4/28 6:20pm 314 12 G 19 67° 36% - - 39° 75.4° 53.2° - - -
4/28 6:10pm 321 11 G 17 67° 35% - - 39° 75.4° 53.2° - - -
4/28 6:00pm 305 12 G 20 68° 34% - - 38° 75.4° 53.2° - - -